Saturday, August 18, 2018, 2:00 PM GMT
Back to Local

CYBC, Baie Comeau, Que.

Location: , , Canada Lat: 49.133
Local Time: 2:00 PM GMT (14:00 GMT) Lon: -68.2
Time Zone: GMT Elev: 68 ft

Show me the last for .
Show Decoded

2018-08-18 13:00 METAR CYBC 181300Z AUTO 07008KT 9SM CLR 17/13 A2991 RMK SLP132 DENSITY ALT 300FT
                 =
2018-08-18 12:00 METAR CYBC 181200Z AUTO 04003KT 9SM CLR 16/14 A2991 RMK SLP131 DENSITY ALT 200FT
                 =
2018-08-18 11:00 METAR CYBC 181100Z AUTO 00000KT 9SM CLR 12/11 A2990 RMK SLP128 =
2018-08-18 10:00 METAR CYBC 181000Z AUTO VRB02KT 9SM SCT085 11/10 A2990 RMK SLP126 =
2018-08-18 09:00 METAR CYBC 180900Z AUTO 00000KT 9SM BKN075 11/10 A2988 RMK SLP121 =
2018-08-18 08:00 METAR CYBC 180800Z AUTO VRB02KT 9SM FEW075 BKN092 12/11 A2989 RMK SLP122 =
2018-08-18 07:00 METAR CYBC 180700Z AUTO VRB02KT 9SM CLR 12/11 A2988 RMK SLP121 =
2018-08-18 06:00 METAR CYBC 180600Z AUTO 25004KT 9SM BKN075 BKN110 12/11 A2989 RMK SLP123 =
2018-08-18 05:00 METAR CYBC 180500Z AUTO 23007KT 9SM FEW075 BKN120 BKN140 13/12 A2990 RMK SLP126
                 =
2018-08-18 04:00 METAR CYBC 180400Z AUTO 21003KT 170V260 9SM SCT085 SCT110 OVC130 14/13 A2989 RMK
                 SLP123 =
2018-08-18 03:00 METAR CYBC 180300Z AUTO 00000KT 9SM BKN085 OVC120 15/13 A2990 RMK SLP128 =
2018-08-18 02:53 METAR CYBC 180253Z AUTO 34003KT 9SM SCT085 BKN110 OVC150 14/13 A2991 RMK SLP129
                 =
2018-08-18 02:00 METAR CYBC 180200Z AUTO 23005KT 9SM -RA OVC100 14/13 A2992 RMK SLP134 =
2018-08-18 01:00 METAR CYBC 180100Z AUTO 00000KT 9SM -RA OVC110 14/13 A2993 RMK SLP136 =
2018-08-18 00:42 METAR CYBC 180042Z AUTO 00000KT 9SM -RA FEW055 OVC100 15/12 A2993 RMK SLP136 =
2018-08-18 00:00 METAR CYBC 180000Z AUTO 00000KT 9SM OVC130 15/12 A2992 RMK SLP135 =
2018-08-17 23:00 METAR CYBC 172300Z AUTO 00000KT 9SM BKN150 BKN180 15/11 A2992 RMK SLP133 =
2018-08-17 22:00 METAR CYBC 172200Z AUTO 23003KT 9SM CLR 16/11 A2992 RMK SLP133 DENSITY ALT 200FT
                 =
2018-08-17 21:00 METAR CYBC 172100Z AUTO 23007KT 9SM CLR 19/09 A2993 RMK SLP136 DENSITY ALT 500FT
                 =
2018-08-17 20:00 METAR CYBC 172000Z AUTO 22007KT 9SM CLR 20/10 A2994 RMK SLP141 DENSITY ALT 600FT
                 =
2018-08-17 19:00 METAR CYBC 171900Z AUTO 24009KT 9SM CLR 20/10 A2996 RMK SLP148 DENSITY ALT 500FT
                 =
2018-08-17 18:00 METAR CYBC 171800Z AUTO 23012G18KT 9SM CLR 20/10 A2997 RMK SLP151 DENSITY ALT
                 600FT =
2018-08-17 17:00 METAR CYBC 171700Z AUTO 23012KT 9SM CLR 20/11 A2999 RMK SLP156 DENSITY ALT 500FT
                 =
2018-08-17 16:00 METAR CYBC 171600Z AUTO 23011G17KT 9SM CLR 18/11 A3001 RMK SLP163 DENSITY ALT
                 300FT =
2018-08-17 15:00 METAR CYBC 171500Z AUTO 23012KT 9SM CLR 17/11 A3003 RMK SLP170 DENSITY ALT 100FT
                 =

Support USWX by starting your Amazon purchase here.